SBI601 UWKD-UWGG
Flight info
| Callsign | SBI601 |
|---|---|
| Flight time | N/A |
| Altitude | 30000 |
| Route | APTAR1H APTAR L158 KOKAD N604 PESAB PESAB2P |
| Aircraft | A320/M-SDE3FGHIRWY/LB1 |
Departure
| Time | 2026-04-30 14:15 |
|---|---|
| Airport | Kazan International Airport (UWKD) |
Arrival
| Time | N/A |
|---|---|
| Airport | Nizhny Novgorod / Strigino International Airport (UWGG) |
| Time | Latitude | Longitude | Altitude | Speed | Heading |
|---|---|---|---|---|---|
| 2026-04-30 13:59 | 55.60711 | 49.29598 | 406 ft | 0 kts | 34° |
| 2026-04-30 14:10 | 55.60726 | 49.29623 | 413 ft | 12 kts | 52° |
| 2026-04-30 14:10 | 55.60699 | 49.29776 | 411 ft | 14 kts | 124° |
| 2026-04-30 14:10 | 55.60647 | 49.29910 | 414 ft | 13 kts | 124° |
| 2026-04-30 14:10 | 55.60599 | 49.30033 | 413 ft | 11 kts | 125° |
| 2026-04-30 14:11 | 55.60512 | 49.30071 | 407 ft | 17 kts | 211° |
| 2026-04-30 14:11 | 55.60410 | 49.29948 | 411 ft | 19 kts | 213° |
| 2026-04-30 14:11 | 55.60283 | 49.29876 | 414 ft | 20 kts | 186° |
| 2026-04-30 14:11 | 55.60161 | 49.29948 | 416 ft | 19 kts | 141° |
| 2026-04-30 14:12 | 55.60044 | 49.30080 | 413 ft | 21 kts | 156° |
| 2026-04-30 14:12 | 55.59919 | 49.30112 | 416 ft | 0 kts | 200° |
| 2026-04-30 14:12 | 55.59909 | 49.30105 | 409 ft | 8 kts | 202° |
| 2026-04-30 14:13 | 55.59822 | 49.29975 | 418 ft | 13 kts | 253° |
| 2026-04-30 14:13 | 55.59835 | 49.29913 | 417 ft | 0 kts | 305° |
| 2026-04-30 14:14 | 55.59947 | 49.29626 | 415 ft | 67 kts | 304° |
| 2026-04-30 14:15 | 55.60346 | 49.28590 | 413 ft | 133 kts | 304° |
| 2026-04-30 14:15 | 55.60953 | 49.27059 | 694 ft | 159 kts | 306° |
| 2026-04-30 14:15 | 55.61627 | 49.25477 | 1428 ft | 163 kts | 306° |
| 2026-04-30 14:15 | 55.62071 | 49.23632 | 2046 ft | 175 kts | 269° |
| 2026-04-30 14:16 | 55.61877 | 49.22189 | 2308 ft | 192 kts | 248° |
| 2026-04-30 14:16 | 55.60991 | 49.19227 | 2896 ft | 224 kts | 241° |
| 2026-04-30 14:16 | 55.60183 | 49.16702 | 3537 ft | 243 kts | 242° |
| 2026-04-30 14:16 | 55.59382 | 49.14017 | 4484 ft | 249 kts | 243° |
| 2026-04-30 14:17 | 55.58872 | 49.12186 | 5130 ft | 252 kts | 244° |
| 2026-04-30 14:17 | 55.58854 | 49.12119 | 5159 ft | 252 kts | 244° |
| 2026-04-30 14:17 | 55.58245 | 49.09794 | 5788 ft | 256 kts | 245° |
| 2026-04-30 14:17 | 55.57527 | 49.06903 | 6592 ft | 258 kts | 246° |
| 2026-04-30 14:18 | 55.56828 | 49.03972 | 7555 ft | 261 kts | 247° |
| 2026-04-30 14:18 | 55.56136 | 49.00998 | 8129 ft | 266 kts | 248° |
| 2026-04-30 14:18 | 55.54732 | 48.94888 | 10074 ft | 271 kts | 248° |
| 2026-04-30 14:19 | 55.53723 | 48.90485 | 10689 ft | 298 kts | 248° |
| 2026-04-30 14:19 | 55.53003 | 48.87358 | 11260 ft | 307 kts | 248° |
| 2026-04-30 14:19 | 55.52198 | 48.83852 | 12156 ft | 308 kts | 248° |
| 2026-04-30 14:20 | 55.51804 | 48.82137 | 12630 ft | 308 kts | 248° |
| 2026-04-30 14:20 | 55.51195 | 48.79481 | 13379 ft | 307 kts | 248° |
| 2026-04-30 14:20 | 55.49582 | 48.72484 | 15082 ft | 308 kts | 246° |
| 2026-04-30 14:21 | 55.48770 | 48.68982 | 15869 ft | 309 kts | 246° |
| 2026-04-30 14:21 | 55.47945 | 48.65435 | 16588 ft | 313 kts | 246° |
| 2026-04-30 14:21 | 55.46315 | 48.58253 | 17970 ft | 322 kts | 250° |
| 2026-04-30 14:22 | 55.45876 | 48.54350 | 18613 ft | 330 kts | 261° |
| 2026-04-30 14:22 | 55.46537 | 48.46149 | 19805 ft | 349 kts | 281° |
| 2026-04-30 14:22 | 55.47262 | 48.42039 | 20406 ft | 352 kts | 281° |
| 2026-04-30 14:23 | 55.48712 | 48.33703 | 21586 ft | 359 kts | 281° |